Time;durP1;ratioP1;P1;durP2;ratioP2;P2;SDS_P1;SDS_P2;PMS_P1;PMS_P2;Temp;Humidity;BMP_temperature;BMP_pressure;BME280_temperature;BME280_humidity;BME280_pressure;Samples;Min_cycle;Max_cycle;Signal;HPM_P1;HPM_P2
2023/02/03 00:08:55;;;;;;;9.00;6.25;;;5.20;62.80;;;;;;21001848;28;20052;-66
2023/02/03 00:19:16;;;;;;;9.48;6.53;;;5.00;63.40;;;;;;21002576;28;20554;-68
2023/02/03 00:29:34;;;;;;;9.93;6.50;;;5.00;63.40;;;;;;21070190;27;20410;-64
2023/02/03 00:39:55;;;;;;;14.07;9.07;;;4.90;63.50;;;;;;21071852;28;20468;-58
2023/02/03 00:50:16;;;;;;;15.38;7.90;;;4.70;64.00;;;;;;21070375;28;20052;-58
2023/02/03 01:00:32;;;;;;;16.08;7.93;;;4.60;64.30;;;;;;21107178;28;20393;-65
2023/02/03 01:10:46;;;;;;;12.15;7.95;;;4.40;64.50;;;;;;21067930;28;20041;-58
2023/02/03 01:20:52;;;;;;;13.60;8.10;;;;;;;;;;21066158;28;20575;-66
2023/02/03 01:30:56;;;;;;;15.15;8.48;;;4.20;65.00;;;;;;21066035;28;20476;-62
2023/02/03 01:40:59;;;;;;;10.95;8.10;;;4.00;65.10;;;;;;21008638;28;20139;-65
2023/02/03 01:51:02;;;;;;;12.27;8.25;;;;;;;;;;21008337;28;20486;-60
2023/02/03 02:01:05;;;;;;;14.77;8.43;;;3.80;65.50;;;;;;21007467;28;20147;-59
2023/02/03 02:11:07;;;;;;;12.90;8.70;;;3.80;65.60;;;;;;21006761;28;20068;-66
2023/02/03 02:21:38;;;;;;;12.10;7.32;;;3.70;66.20;;;;;;21005569;28;20076;-67
2023/02/03 02:31:54;;;;;;;8.75;6.65;;;3.70;66.50;;;;;;21004768;28;20056;-64
2023/02/03 02:42:04;;;;;;;9.73;6.47;;;3.60;66.80;;;;;;21003742;28;20048;-65
2023/02/03 02:52:10;;;;;;;10.35;6.88;;;3.60;67.20;;;;;;21001805;28;20098;-67
2023/02/03 03:02:11;;;;;;;12.07;6.63;;;3.60;67.10;;;;;;21002100;28;20048;-63
2023/02/03 03:12:21;;;;;;;10.38;7.57;;;3.50;67.00;;;;;;21001870;28;20087;-68
2023/02/03 03:22:29;;;;;;;9.63;6.88;;;3.40;67.10;;;;;;21000614;28;20049;-68
2023/02/03 03:32:35;;;;;;;11.15;6.07;;;3.30;67.20;;;;;;20999590;28;20044;-58
2023/02/03 03:42:48;;;;;;;11.52;7.47;;;3.20;67.40;;;;;;20998602;28;20476;-62
2023/02/03 03:52:54;;;;;;;14.18;7.43;;;3.20;67.50;;;;;;20997523;28;20048;-62
2023/02/03 04:03:23;;;;;;;22.05;10.57;;;3.10;67.60;;;;;;20997453;28;20048;-61
2023/02/03 04:13:28;;;;;;;9.93;7.30;;;3.10;67.40;;;;;;20997328;28;20154;-61
2023/02/03 04:23:35;;;;;;;14.85;7.93;;;3.00;67.10;;;;;;20996541;28;20105;-59
2023/02/03 04:33:46;;;;;;;12.75;7.40;;;2.90;67.30;;;;;;20996061;28;20045;-64
2023/02/03 04:43:54;;;;;;;12.00;7.88;;;2.80;67.60;;;;;;20996090;28;20423;-59
2023/02/03 04:53:56;;;;;;;9.23;7.03;;;2.80;67.60;;;;;;20995575;28;20056;-61
2023/02/03 05:03:58;;;;;;;12.82;7.75;;;2.90;67.70;;;;;;20994914;28;20044;-66
2023/02/03 05:13:59;;;;;;;12.75;7.63;;;2.90;67.60;;;;;;21007360;28;20049;-58
2023/02/03 05:24:05;;;;;;;11.05;7.10;;;2.80;67.70;;;;;;21010749;28;20147;-58
2023/02/03 05:34:07;;;;;;;8.98;6.22;;;2.80;67.60;;;;;;21009852;28;20049;-67
2023/02/03 05:44:09;;;;;;;12.85;7.07;;;2.80;67.50;;;;;;21009413;28;20119;-67
2023/02/03 05:54:11;;;;;;;12.05;6.75;;;2.70;67.30;;;;;;21007542;28;20093;-68
2023/02/03 06:04:13;;;;;;;10.55;6.60;;;2.50;67.50;;;;;;21007679;28;20105;-66
2023/02/03 06:14:15;;;;;;;14.50;8.10;;;2.50;67.70;;;;;;21006742;28;20102;-59
2023/02/03 06:24:17;;;;;;;14.75;8.15;;;2.50;67.20;;;;;;21013239;28;20080;-67
2023/02/03 06:34:20;;;;;;;17.98;9.07;;;2.30;67.60;;;;;;21028542;28;20048;-62
2023/02/03 06:44:22;;;;;;;15.85;7.45;;;2.30;67.60;;;;;;21004280;28;20553;-62
2023/02/03 06:54:26;;;;;;;15.90;8.30;;;2.30;67.80;;;;;;21003123;28;20202;-63
2023/02/03 07:04:29;;;;;;;15.02;7.97;;;2.30;68.00;;;;;;21002056;28;20131;-64
2023/02/03 07:14:30;;;;;;;15.52;8.68;;;2.50;67.80;;;;;;20999556;28;20044;-58
2023/02/03 07:24:33;;;;;;;15.40;9.45;;;2.50;67.90;;;;;;20998552;28;20179;-57
2023/02/03 07:34:35;;;;;;;17.77;10.15;;;2.50;68.00;;;;;;20998183;28;20124;-58
2023/02/03 07:44:36;;;;;;;20.17;10.07;;;2.50;68.00;;;;;;20998035;28;20498;-62
2023/02/03 07:54:38;;;;;;;12.88;8.32;;;2.60;67.60;;;;;;20996987;28;20056;-63
2023/02/03 08:04:39;;;;;;;20.17;8.57;;;2.50;67.40;;;;;;20997172;28;20056;-62
2023/02/03 08:14:41;;;;;;;15.02;8.23;;;2.50;67.00;;;;;;20996340;28;20080;-68
2023/02/03 08:24:44;;;;;;;14.57;7.53;;;2.60;65.80;;;;;;20995881;28;20087;-67
2023/02/03 08:34:48;;;;;;;13.50;8.85;;;2.50;65.80;;;;;;20995952;28;20499;-69
2023/02/03 08:44:50;;;;;;;16.30;6.80;;;2.50;65.50;;;;;;21000923;28;20053;-65
2023/02/03 08:54:52;;;;;;;12.70;6.72;;;2.70;65.00;;;;;;21013424;28;20044;-68
2023/02/03 09:04:54;;;;;;;8.77;5.15;;;2.90;64.40;;;;;;21012993;28;20540;-60
2023/02/03 09:14:56;;;;;;;15.95;6.47;;;3.30;63.60;;;;;;21010346;28;20510;-59
2023/02/03 09:24:58;;;;;;;13.75;6.65;;;3.60;62.50;;;;;;21010300;28;20063;-62
2023/02/03 09:34:59;;;;;;;17.60;9.55;;;4.00;61.50;;;;;;21007934;28;20048;-67
2023/02/03 09:45:30;;;;;;;13.30;7.15;;;4.40;60.80;;;;;;21007890;28;20048;-66
2023/02/03 09:55:46;;;;;;;13.07;7.00;;;4.90;60.00;;;;;;21006762;28;20056;-67
2023/02/03 10:06:10;;;;;;;19.17;7.75;;;5.50;58.70;;;;;;21006431;28;20048;-66
2023/02/03 10:16:59;;;;;;;11.18;6.35;;;6.00;57.10;;;;;;21002387;28;20131;-66
2023/02/03 10:27:01;;;;;;;11.15;6.15;;;6.50;55.20;;;;;;20912606;28;20060;-65
2023/02/03 10:37:21;;;;;;;11.82;4.68;;;6.90;54.30;;;;;;20911328;28;20060;-65
2023/02/03 10:47:28;;;;;;;13.80;4.25;;;7.30;51.90;;;;;;20910678;28;20091;-65
2023/02/03 10:57:34;;;;;;;10.52;4.10;;;7.80;50.00;;;;;;20960629;28;20041;-57
2023/02/03 11:07:36;;;;;;;9.65;4.75;;;8.40;49.90;;;;;;20999964;28;20135;-68
2023/02/03 11:17:43;;;;;;;11.85;4.80;;;8.80;51.80;;;;;;20999250;28;20056;-69
2023/02/03 11:27:45;;;;;;;11.50;4.93;;;9.40;47.40;;;;;;21000159;28;20091;-72
2023/02/03 11:37:52;;;;;;;12.70;5.65;;;9.70;46.00;;;;;;20999483;28;20420;-67
2023/02/03 11:48:30;;;;;;;14.68;5.70;;;10.00;44.60;;;;;;20999805;28;20129;-68
2023/02/03 11:58:56;;;;;;;17.23;6.85;;;10.30;43.20;;;;;;20928512;28;20053;-70
2023/02/03 12:09:39;;;;;;;12.70;6.45;;;10.60;43.60;;;;;;20935432;28;20053;-70
2023/02/03 12:19:55;;;;;;;13.82;7.38;;;10.80;42.40;;;;;;20917765;28;20136;-67
2023/02/03 12:29:58;;;;;;;;;;;11.20;43.30;;;;;;20914423;28;20053;-65
2023/02/03 12:40:23;;;;;;;11.50;6.75;;;11.30;41.40;;;;;;20913252;28;20292;-67
2023/02/03 12:50:44;;;;;;;16.50;7.63;;;11.50;41.40;;;;;;20912507;28;20374;-65
2023/02/03 13:00:50;;;;;;;13.63;6.72;;;11.80;41.30;;;;;;20911909;28;20080;-66
2023/02/03 13:11:08;;;;;;;12.27;7.63;;;12.00;41.40;;;;;;20911721;28;20076;-66
2023/02/03 13:21:12;;;;;;;13.48;6.20;;;12.20;40.40;;;;;;20910280;28;20057;-66
2023/02/03 13:31:20;;;;;;;10.38;5.95;;;12.30;39.10;;;;;;20915208;28;20041;-65
2023/02/03 13:41:37;;;;;;;7.75;5.78;;;12.50;38.30;;;;;;20924951;28;20049;-65
2023/02/03 13:51:45;;;;;;;8.35;4.93;;;12.60;37.60;;;;;;20925281;28;20044;-64
2023/02/03 14:01:46;;;;;;;7.20;4.80;;;12.70;37.10;;;;;;20923918;28;20084;-65
2023/02/03 14:12:11;;;;;;;8.13;4.65;;;12.70;36.50;;;;;;20924864;28;20123;-64
2023/02/03 14:22:16;;;;;;;11.87;4.80;;;13.00;35.50;;;;;;20929256;28;20425;-66
2023/02/03 14:32:18;;;;;;;8.18;5.00;;;13.00;35.30;;;;;;20931917;28;20045;-65
2023/02/03 14:42:35;;;;;;;14.55;6.07;;;13.10;34.40;;;;;;20922973;28;20144;-65
2023/02/03 14:52:58;;;;;;;7.50;4.45;;;13.20;33.30;;;;;;20921705;28;20056;-66
2023/02/03 15:03:11;;;;;;;7.53;4.18;;;13.10;31.80;;;;;;20920277;28;20523;-70
2023/02/03 15:13:26;;;;;;;2.47;1.48;;;13.20;30.90;;;;;;20918733;28;20380;-64
2023/02/03 15:23:35;;;;;;;7.78;3.97;;;13.30;25.40;;;;;;20917461;28;20056;-66
2023/02/03 15:33:38;;;;;;;6.95;1.92;;;13.20;28.50;;;;;;20917144;28;20053;-65
2023/02/03 15:43:44;;;;;;;8.27;2.13;;;13.20;26.60;;;;;;20916371;28;20044;-65
2023/02/03 15:53:46;;;;;;;4.18;2.00;;;13.10;26.80;;;;;;20916270;28;20110;-66
2023/02/03 16:03:52;;;;;;;2.58;1.40;;;13.00;26.40;;;;;;20915378;28;20472;-68
2023/02/03 16:13:55;;;;;;;3.47;1.77;;;13.00;25.90;;;;;;20902998;28;20056;-67
2023/02/03 16:23:58;;;;;;;2.10;1.15;;;12.90;25.70;;;;;;20904921;28;20083;-66
2023/02/03 16:54:41;;;;;;;6.03;2.53;;;12.70;31.20;;;;;;20850104;28;20053;-59
2023/02/03 17:04:43;;;;;;;3.42;1.50;;;12.60;27.60;;;;;;20852966;28;20413;-72
2023/02/03 17:14:44;;;;;;;5.55;2.38;;;12.30;28.20;;;;;;20859160;28;20052;-68
2023/02/03 17:24:47;;;;;;;5.70;3.38;;;12.20;29.60;;;;;;20925889;28;20071;-70
2023/02/03 17:34:49;;;;;;;11.63;6.32;;;12.10;32.10;;;;;;20902987;28;20042;-66
2023/02/03 17:44:50;;;;;;;7.18;3.33;;;11.90;32.80;;;;;;20843337;28;20058;-62
2023/02/03 17:54:53;;;;;;;10.23;5.05;;;11.80;34.60;;;;;;20859227;28;20048;-64
2023/02/03 18:04:54;;;;;;;7.63;4.30;;;11.70;35.00;;;;;;20873440;28;20044;-64
2023/02/03 18:14:57;;;;;;;14.80;7.45;;;11.50;35.90;;;;;;20911332;28;20040;-63
2023/02/03 18:24:59;;;;;;;17.20;9.35;;;11.50;37.60;;;;;;20922104;28;20064;-67
2023/02/03 18:35:00;;;;;;;20.52;10.93;;;11.60;39.40;;;;;;20919720;28;20091;-68
2023/02/03 18:45:05;;;;;;;19.05;10.43;;;11.30;37.30;;;;;;20919494;28;20109;-62
2023/02/03 18:55:07;;;;;;;19.58;8.85;;;11.20;37.70;;;;;;20886075;28;20472;-69
2023/02/03 19:05:10;;;;;;;23.08;10.98;;;11.10;39.00;;;;;;20871246;28;20394;-68
2023/02/03 19:15:12;;;;;;;14.27;6.93;;;10.90;39.20;;;;;;20900521;28;20107;-66
2023/02/03 19:25:13;;;;;;;13.68;5.72;;;10.70;39.10;;;;;;20870749;28;20067;-67
2023/02/03 19:35:15;;;;;;;10.40;4.97;;;10.30;39.80;;;;;;20913060;28;20052;-67
2023/02/03 19:45:16;;;;;;;11.27;5.25;;;10.80;42.60;;;;;;20917448;28;20052;-65
2023/02/03 19:55:18;;;;;;;8.43;4.00;;;10.30;39.90;;;;;;20916446;28;20381;-65
2023/02/03 20:05:20;;;;;;;10.40;5.47;;;9.90;41.00;;;;;;20930897;28;20057;-66
2023/02/03 20:15:22;;;;;;;9.68;3.78;;;9.60;41.40;;;;;;20936447;28;20504;-61
2023/02/03 20:25:24;;;;;;;5.07;2.92;;;9.30;42.70;;;;;;20914673;28;20084;-65
2023/02/03 20:35:26;;;;;;;7.07;4.95;;;9.20;43.30;;;;;;20914763;28;20072;-65
2023/02/03 20:45:28;;;;;;;9.20;3.10;;;9.00;43.90;;;;;;20929731;28;20132;-65
2023/02/03 20:55:34;;;;;;;9.10;3.72;;;8.90;44.40;;;;;;20929597;28;20060;-66
2023/02/03 21:05:38;;;;;;;8.27;4.07;;;8.90;43.80;;;;;;20930847;28;20088;-65
2023/02/03 21:15:40;;;;;;;8.60;5.40;;;8.80;43.80;;;;;;20931990;28;20405;-65
2023/02/03 21:25:42;;;;;;;7.65;4.65;;;8.60;44.70;;;;;;20931088;28;20092;-65
2023/02/03 21:35:45;;;;;;;11.05;5.03;;;8.30;46.20;;;;;;20930884;28;20049;-59
2023/02/03 21:45:48;;;;;;;8.98;4.45;;;8.00;47.10;;;;;;20929475;28;20063;-66
2023/02/03 21:55:50;;;;;;;7.55;4.05;;;7.70;48.40;;;;;;20926228;28;20048;-62
2023/02/03 22:06:03;;;;;;;7.10;2.97;;;7.30;48.90;;;;;;20924706;28;20048;-63
2023/02/03 22:16:06;;;;;;;8.30;4.03;;;7.20;48.70;;;;;;20925580;28;20052;-66
2023/02/03 22:26:09;;;;;;;10.27;5.57;;;7.20;48.70;;;;;;20922379;28;20068;-66
2023/02/03 22:36:11;;;;;;;13.52;8.18;;;7.20;48.90;;;;;;20922185;28;20072;-65
2023/02/03 22:46:14;;;;;;;10.65;6.43;;;6.80;50.00;;;;;;20922671;28;20491;-64
2023/02/03 22:56:16;;;;;;;11.93;5.28;;;6.60;50.30;;;;;;20921718;28;20083;-67
2023/02/03 23:06:17;;;;;;;10.43;5.63;;;6.50;50.50;;;;;;20919663;28;20076;-65
2023/02/03 23:16:19;;;;;;;11.07;6.03;;;6.40;51.10;;;;;;20918024;28;20052;-68
2023/02/03 23:26:22;;;;;;;10.02;4.60;;;6.30;51.40;;;;;;20920495;28;20091;-64
2023/02/03 23:36:23;;;;;;;8.48;4.40;;;6.20;51.50;;;;;;20917797;28;20053;-65
2023/02/03 23:46:26;;;;;;;10.50;4.75;;;;;;;;;;20918232;28;20139;-64
2023/02/03 23:56:28;;;;;;;10.30;4.88;;;5.90;51.80;;;;;;20918799;28;20049;-67
